Time;durP1;ratioP1;P1;durP2;ratioP2;P2;SDS_P1;SDS_P2;PMS_P1;PMS_P2;Temp;Humidity;BMP_temperature;BMP_pressure;BME280_temperature;BME280_humidity;BME280_pressure;Samples;Min_cycle;Max_cycle;Signal;HPM_P1;HPM_P2
2022/11/15 00:00:30;;;;;;;;;;;;;;;3.72;100.00;95641.94;10516703;28;3298;-68
2022/11/15 00:05:34;;;;;;;;;;;;;;;3.68;100.00;95636.25;10519035;28;3321;-67
2022/11/15 00:10:44;;;;;;;;;;;;;;;3.60;100.00;95633.97;10509183;28;3263;-70
2022/11/15 00:15:47;;;;;;;;;;;;;;;3.58;100.00;95630.75;10511350;28;3254;-69
2022/11/15 00:20:50;;;;;;;;;;;;;;;3.53;100.00;95634.09;10508810;28;3326;-68
2022/11/15 00:25:54;;;;;;;;;;;;;;;3.60;100.00;95622.53;10507814;28;3647;-68
2022/11/15 00:30:57;;;;;;;;;;;;;;;3.60;100.00;95623.34;10504532;28;3404;-69
2022/11/15 00:36:00;;;;;;;;;;;;;;;3.56;100.00;95629.34;10503080;28;2970;-71
2022/11/15 00:41:03;;;;;;;;;;;;;;;3.47;100.00;95623.59;10505945;28;3342;-75
2022/11/15 00:46:11;;;;;;;;;;;;;;;3.40;100.00;95617.59;10496743;28;3322;-75
2022/11/15 00:51:14;;;;;;;;;;;;;;;3.52;100.00;95611.22;10514451;28;3306;-77
2022/11/15 00:56:17;;;;;;;;;;;;;;;3.44;100.00;95605.47;10514876;28;3351;-75
2022/11/15 01:01:21;;;;;;;;;;;;;;;3.41;100.00;95592.63;10505949;28;3322;-73
2022/11/15 01:06:30;;;;;;;;;;;;;;;3.55;100.00;95586.00;10508321;28;3274;-75
2022/11/15 01:11:33;;;;;;;;;;;;;;;3.53;100.00;95574.81;10507991;28;3447;-75
2022/11/15 01:16:42;;;;;;;;;;;;;;;3.62;100.00;95565.44;10507916;28;3272;-75
2022/11/15 01:21:45;;;;;;;;;;;;;;;3.49;100.00;95560.38;10504918;28;3360;-74
2022/11/15 01:26:48;;;;;;;;;;;;;;;3.58;100.00;95566.97;10504190;28;3266;-74
2022/11/15 01:31:51;;;;;;;;;;;;;;;3.49;100.00;95563.03;10512362;28;3351;-69
2022/11/15 01:36:54;;;;;;;;;;;;;;;3.43;100.00;95558.66;10511021;28;3337;-68
2022/11/15 01:41:57;;;;;;;;;;;;;;;3.33;100.00;95545.97;10516066;28;2958;-73
2022/11/15 01:47:01;;;;;;;;;;;;;;;3.31;100.00;95544.56;10513764;28;2896;-74
2022/11/15 01:52:04;;;;;;;;;;;;;;;3.29;100.00;95526.22;10502470;28;3037;-69
2022/11/15 01:57:07;;;;;;;;;;;;;;;3.27;100.00;95535.47;10509902;28;2986;-69
2022/11/15 02:02:10;;;;;;;;;;;;;;;3.15;100.00;95533.63;10508180;28;3014;-69
2022/11/15 02:07:13;;;;;;;;;;;;;;;3.06;100.00;95527.06;10508525;28;3026;-68
2022/11/15 02:12:17;;;;;;;;;;;;;;;2.85;100.00;95522.31;10498417;28;3108;-68
2022/11/15 02:17:20;;;;;;;;;;;;;;;2.78;100.00;95511.81;10510291;28;3080;-69
2022/11/15 02:22:23;;;;;;;;;;;;;;;2.72;100.00;95526.00;10500004;28;3049;-70
2022/11/15 02:27:26;;;;;;;;;;;;;;;2.68;100.00;95531.00;10497537;28;2998;-72
2022/11/15 02:32:29;;;;;;;;;;;;;;;2.66;100.00;95526.94;10502074;28;2963;-71
2022/11/15 02:37:33;;;;;;;;;;;;;;;2.61;100.00;95525.00;10506782;28;3045;-69
2022/11/15 02:47:56;;;;;;;;;;;;;;;2.52;100.00;95515.72;10508583;28;2989;-68
2022/11/15 02:53:00;;;;;;;;;;;;;;;2.44;100.00;95508.94;10504388;28;2983;-70
2022/11/15 02:58:03;;;;;;;;;;;;;;;2.45;100.00;95504.44;10509626;28;3091;-68
2022/11/15 03:03:06;;;;;;;;;;;;;;;2.47;100.00;95504.19;10506506;28;2974;-68
2022/11/15 03:08:09;;;;;;;;;;;;;;;2.50;100.00;95499.25;10505882;28;3030;-68
2022/11/15 03:13:12;;;;;;;;;;;;;;;2.47;100.00;95481.13;10509130;28;3085;-70
2022/11/15 03:18:19;;;;;;;;;;;;;;;2.54;100.00;95475.69;10515304;28;3232;-68
2022/11/15 03:23:22;;;;;;;;;;;;;;;2.59;100.00;95471.31;10509675;28;3006;-68
2022/11/15 03:28:26;;;;;;;;;;;;;;;2.63;100.00;95464.53;10511873;28;3065;-69
2022/11/15 03:33:29;;;;;;;;;;;;;;;2.78;100.00;95461.41;10510984;28;2931;-68
2022/11/15 03:38:32;;;;;;;;;;;;;;;2.70;100.00;95449.28;10518421;28;3054;-68
2022/11/15 03:43:35;;;;;;;;;;;;;;;2.63;100.00;95448.59;10509628;28;2997;-67
2022/11/15 03:48:39;;;;;;;;;;;;;;;2.74;100.00;95449.66;10509140;28;3104;-67
2022/11/15 03:53:42;;;;;;;;;;;;;;;2.61;100.00;95456.00;10506970;28;2990;-69
2022/11/15 03:58:45;;;;;;;;;;;;;;;2.53;100.00;95448.38;10517144;28;3037;-68
2022/11/15 04:03:48;;;;;;;;;;;;;;;2.62;100.00;95447.00;10519844;28;2806;-68
2022/11/15 04:08:52;;;;;;;;;;;;;;;2.58;100.00;95437.88;10508422;28;3041;-71
2022/11/15 04:13:55;;;;;;;;;;;;;;;2.59;100.00;95431.53;10510488;28;3053;-71
2022/11/15 04:24:20;;;;;;;;;;;;;;;2.56;100.00;95418.72;10515283;28;3001;-68
2022/11/15 04:29:36;;;;;;;;;;;;;;;2.57;100.00;95417.69;10511990;28;3175;-67
2022/11/15 04:34:39;;;;;;;;;;;;;;;2.47;100.00;95417.44;10505468;28;3423;-70
2022/11/15 04:39:42;;;;;;;;;;;;;;;2.33;100.00;95410.75;10504817;28;3050;-68
2022/11/15 04:44:46;;;;;;;;;;;;;;;2.32;100.00;95409.16;10514778;28;2745;-69
2022/11/15 04:49:50;;;;;;;;;;;;;;;2.23;100.00;95413.16;10509838;28;3035;-70
2022/11/15 04:54:53;;;;;;;;;;;;;;;2.20;100.00;95411.00;10545823;27;3101;-70
2022/11/15 04:59:57;;;;;;;;;;;;;;;2.15;100.00;95419.63;10517534;28;3025;-69
2022/11/15 05:05:00;;;;;;;;;;;;;;;2.13;100.00;95411.09;10509257;28;3046;-76
2022/11/15 05:10:03;;;;;;;;;;;;;;;2.09;100.00;95394.84;10501909;28;3037;-70
2022/11/15 05:15:06;;;;;;;;;;;;;;;2.03;100.00;95395.75;10511843;28;3002;-77
2022/11/15 05:20:09;;;;;;;;;;;;;;;2.00;100.00;95390.91;10513012;28;3040;-72
2022/11/15 05:25:13;;;;;;;;;;;;;;;2.16;100.00;95389.41;10507968;28;3006;-72
2022/11/15 05:30:19;;;;;;;;;;;;;;;2.30;100.00;95382.06;10517074;28;3037;-68
2022/11/15 05:35:22;;;;;;;;;;;;;;;2.37;100.00;95369.50;10510202;28;3038;-69
2022/11/15 05:40:25;;;;;;;;;;;;;;;2.36;100.00;95359.91;10507830;28;2750;-68
2022/11/15 05:45:29;;;;;;;;;;;;;;;2.35;100.00;95360.94;10516368;28;3089;-69
2022/11/15 05:50:32;;;;;;;;;;;;;;;2.29;100.00;95367.16;10518517;28;3058;-69
2022/11/15 05:55:35;;;;;;;;;;;;;;;2.19;100.00;95377.56;10513256;28;2970;-69
2022/11/15 06:00:38;;;;;;;;;;;;;;;2.08;100.00;95372.00;10506383;28;3024;-68
2022/11/15 06:05:42;;;;;;;;;;;;;;;2.04;100.00;95356.81;10498944;28;2943;-70
2022/11/15 06:10:45;;;;;;;;;;;;;;;2.15;100.00;95350.69;10501239;28;2910;-71
2022/11/15 06:15:48;;;;;;;;;;;;;;;2.20;100.00;95342.84;10502839;28;3422;-69
2022/11/15 06:20:51;;;;;;;;;;;;;;;2.31;100.00;95346.53;10505216;28;3061;-69
2022/11/15 06:25:54;;;;;;;;;;;;;;;2.26;100.00;95351.72;10502556;28;2697;-68
2022/11/15 06:30:57;;;;;;;;;;;;;;;2.21;100.00;95341.00;10503489;28;2671;-68
2022/11/15 06:36:01;;;;;;;;;;;;;;;2.27;100.00;95353.34;10507740;28;3064;-68
2022/11/15 06:41:04;;;;;;;;;;;;;;;2.52;100.00;95351.22;10502117;28;3144;-73
2022/11/15 06:46:08;;;;;;;;;;;;;;;2.65;100.00;95358.13;10506662;28;3050;-69
2022/11/15 06:51:11;;;;;;;;;;;;;;;2.64;100.00;95359.97;10506079;28;2929;-70
2022/11/15 06:56:15;;;;;;;;;;;;;;;2.70;100.00;95353.75;10510684;28;3062;-73
2022/11/15 07:01:18;;;;;;;;;;;;;;;2.82;100.00;95358.22;10504894;28;3014;-69
2022/11/15 07:06:21;;;;;;;;;;;;;;;2.86;100.00;95368.16;10504018;28;3170;-76
2022/11/15 07:11:24;;;;;;;;;;;;;;;2.92;100.00;95363.72;10498588;28;3034;-78
2022/11/15 07:16:27;;;;;;;;;;;;;;;2.90;100.00;95360.50;10494673;28;2973;-76
2022/11/15 07:21:30;;;;;;;;;;;;;;;3.08;100.00;95357.69;10493347;28;2987;-76
2022/11/15 07:26:33;;;;;;;;;;;;;;;3.15;100.00;95363.66;10487702;28;3005;-77
2022/11/15 07:31:37;;;;;;;;;;;;;;;3.36;100.00;95361.38;10497365;28;2977;-76
2022/11/15 07:36:41;;;;;;;;;;;;;;;3.47;100.00;95353.34;10487841;28;3178;-78
2022/11/15 07:41:44;;;;;;;;;;;;;;;3.61;100.00;95353.03;10493920;28;2982;-77
2022/11/15 07:46:47;;;;;;;;;;;;;;;3.74;100.00;95350.06;10508523;28;3017;-83
2022/11/15 07:51:51;;;;;;;;;;;;;;;4.06;100.00;95334.34;10527132;28;2745;-82
2022/11/15 07:56:54;;;;;;;;;;;;;;;4.22;100.00;95328.22;10531130;28;2950;-83
2022/11/15 08:01:57;;;;;;;;;;;;;;;4.31;100.00;95336.56;10534680;28;1976;-85
2022/11/15 08:07:00;;;;;;;;;;;;;;;4.44;100.00;95330.09;10527563;28;2970;-90
2022/11/15 08:12:04;;;;;;;;;;;;;;;4.85;100.00;95318.13;10517753;28;3082;-87
2022/11/15 08:17:07;;;;;;;;;;;;;;;5.05;100.00;95315.69;10507956;28;2914;-86
2022/11/15 08:22:10;;;;;;;;;;;;;;;5.36;100.00;95300.03;10513955;28;2916;-85
2022/11/15 08:27:15;;;;;;;;;;;;;;;5.56;100.00;95278.88;10502448;28;2702;-80
2022/11/15 08:32:18;;;;;;;;;;;;;;;5.57;100.00;95274.34;10503996;28;3165;-78
2022/11/15 08:37:22;;;;;;;;;;;;;;;5.70;100.00;95260.59;10508869;28;3711;-87
2022/11/15 08:42:25;;;;;;;;;;;;;;;5.74;100.00;95259.03;10514389;28;2011;-82
2022/11/15 08:47:28;;;;;;;;;;;;;;;5.78;100.00;95259.31;10509014;28;2919;-79
2022/11/15 08:52:31;;;;;;;;;;;;;;;5.98;100.00;95256.84;10511358;28;3082;-79
2022/11/15 08:57:34;;;;;;;;;;;;;;;6.17;100.00;95267.84;10507263;28;3117;-78
2022/11/15 09:02:37;;;;;;;;;;;;;;;6.44;100.00;95270.44;10506366;28;3049;-78
2022/11/15 09:07:41;;;;;;;;;;;;;;;6.54;100.00;95267.00;10520417;28;3104;-77
2022/11/15 09:12:44;;;;;;;;;;;;;;;6.56;100.00;95259.53;10520756;28;3241;-83
2022/11/15 09:17:48;;;;;;;;;;;;;;;6.60;100.00;95250.72;10515720;28;2919;-83
2022/11/15 09:22:53;;;;;;;;;;;;;;;6.80;100.00;95247.31;10527704;28;3010;-85
2022/11/15 09:27:56;;;;;;;;;;;;;;;6.99;100.00;95232.41;10520709;28;3030;-77
2022/11/15 09:33:00;;;;;;;;;;;;;;;7.13;100.00;95224.72;10490242;28;3018;-77
2022/11/15 09:38:03;;;;;;;;;;;;;;;7.35;100.00;95224.47;10501318;28;3016;-82
2022/11/15 09:43:06;;;;;;;;;;;;;;;7.52;100.00;95219.66;10499902;28;3117;-76
2022/11/15 09:48:09;;;;;;;;;;;;;;;7.92;100.00;95199.28;10498011;28;3022;-77
2022/11/15 09:53:13;;;;;;;;;;;;;;;7.94;100.00;95199.81;10505560;28;3100;-76
2022/11/15 09:58:16;;;;;;;;;;;;;;;8.04;100.00;95188.31;10509541;28;2990;-77
2022/11/15 10:03:21;;;;;;;;;;;;;;;8.12;100.00;95185.88;10513816;28;2985;-81
2022/11/15 10:08:24;;;;;;;;;;;;;;;8.26;100.00;95185.28;10507263;28;2928;-78
2022/11/15 10:13:27;;;;;;;;;;;;;;;8.39;100.00;95172.13;10498430;28;3612;-80
2022/11/15 10:18:30;;;;;;;;;;;;;;;8.60;100.00;95164.84;10513712;28;2997;-79
2022/11/15 10:23:34;;;;;;;;;;;;;;;8.77;100.00;95163.66;10511180;28;3088;-78
2022/11/15 10:28:37;;;;;;;;;;;;;;;9.04;100.00;95150.66;10507755;28;3198;-85
2022/11/15 10:33:41;;;;;;;;;;;;;;;9.27;100.00;95145.63;10497390;28;3038;-85
2022/11/15 10:38:44;;;;;;;;;;;;;;;9.41;100.00;95131.28;10506316;28;3034;-82
2022/11/15 10:43:47;;;;;;;;;;;;;;;9.47;100.00;95118.63;10517014;28;3066;-77
2022/11/15 10:48:50;;;;;;;;;;;;;;;9.67;96.95;95107.72;10507223;28;3030;-83
2022/11/15 10:53:54;;;;;;;;;;;;;;;9.91;93.35;95109.63;10507154;28;2679;-82
2022/11/15 10:58:57;;;;;;;;;;;;;;;10.01;92.67;95099.56;10517417;28;2966;-81
2022/11/15 11:04:01;;;;;;;;;;;;;;;10.27;86.62;95093.94;10513093;28;3116;-82
2022/11/15 11:09:04;;;;;;;;;;;;;;;10.40;86.54;95081.69;10502836;28;3059;-80
2022/11/15 11:14:07;;;;;;;;;;;;;;;10.44;82.92;95069.28;10511426;28;3112;-82
2022/11/15 11:19:10;;;;;;;;;;;;;;;10.37;84.59;95069.63;10495300;28;2835;-82
2022/11/15 11:24:13;;;;;;;;;;;;;;;10.54;84.97;95058.38;10498700;28;2938;-82
2022/11/15 11:29:18;;;;;;;;;;;;;;;10.62;85.47;95057.72;10509384;28;3005;-84
2022/11/15 11:34:21;;;;;;;;;;;;;;;10.61;85.63;95049.94;10512625;28;2998;-84
2022/11/15 11:39:24;;;;;;;;;;;;;;;10.73;88.33;95045.72;10497049;28;2738;-84
2022/11/15 11:44:27;;;;;;;;;;;;;;;10.66;92.05;95041.81;10514239;28;3036;-84
2022/11/15 11:49:31;;;;;;;;;;;;;;;10.90;89.73;95029.06;10511574;28;3459;-85
2022/11/15 11:54:35;;;;;;;;;;;;;;;11.00;85.86;95022.72;10542204;27;2784;-86
2022/11/15 11:59:38;;;;;;;;;;;;;;;11.00;86.62;95020.03;10538531;27;2998;-83
2022/11/15 12:04:46;;;;;;;;;;;;;;;11.03;87.44;95006.00;10531045;28;2988;-81
2022/11/15 12:15:11;;;;;;;;;;;;;;;11.25;85.48;94990.00;10508122;28;3057;-82
2022/11/15 12:20:16;;;;;;;;;;;;;;;11.36;84.11;94996.81;10508275;28;2779;-78
2022/11/15 12:25:21;;;;;;;;;;;;;;;11.41;84.08;94992.44;10502795;28;3001;-79
2022/11/15 12:30:25;;;;;;;;;;;;;;;11.66;82.60;94989.25;10512670;28;2668;-87
2022/11/15 12:35:30;;;;;;;;;;;;;;;11.63;82.30;94985.25;10511441;28;3097;-86
2022/11/15 12:46:07;;;;;;;;;;;;;;;11.79;82.32;94984.97;10506854;28;3054;-83
2022/11/15 12:51:18;;;;;;;;;;;;;;;11.83;80.64;94978.72;10523921;28;2895;-85
2022/11/15 12:56:25;;;;;;;;;;;;;;;11.82;81.79;94974.41;10512548;28;2836;-89
2022/11/15 13:01:32;;;;;;;;;;;;;;;11.86;81.52;94961.94;10517132;28;2652;-81
2022/11/15 13:06:37;;;;;;;;;;;;;;;12.07;81.66;94959.63;10554157;27;3053;-86
2022/11/15 13:11:46;;;;;;;;;;;;;;;12.00;91.40;94955.75;10494864;28;3043;-78
2022/11/15 13:16:51;;;;;;;;;;;;;;;11.99;95.92;94954.16;10501957;28;3037;-78
2022/11/15 13:27:19;;;;;;;;;;;;;;;12.03;98.20;94950.56;10466956;28;3032;-72
2022/11/15 13:32:29;;;;;;;;;;;;;;;11.92;97.11;94943.00;10495406;28;2670;-73
2022/11/15 13:37:59;;;;;;;;;;;;;;;11.86;100.00;94947.69;10501079;28;2983;-72
2022/11/15 13:43:04;;;;;;;;;;;;;;;11.87;99.71;94942.00;10530609;27;3050;-72
2022/11/15 13:48:12;;;;;;;;;;;;;;;11.87;98.14;94947.38;10500271;28;3034;-73
2022/11/15 13:53:18;;;;;;;;;;;;;;;11.75;99.84;94938.19;10503590;28;3084;-72
2022/11/15 13:58:23;;;;;;;;;;;;;;;11.67;100.00;94939.69;10505065;28;2753;-74
2022/11/15 14:03:27;;;;;;;;;;;;;;;11.74;99.44;94931.22;10502108;28;3016;-75
2022/11/15 14:08:33;;;;;;;;;;;;;;;11.73;100.00;94941.19;10518784;28;3112;-73
2022/11/15 14:13:39;;;;;;;;;;;;;;;11.46;100.00;94946.59;10502424;28;2966;-74
2022/11/15 14:18:45;;;;;;;;;;;;;;;11.29;100.00;94947.97;10486189;28;2938;-73
2022/11/15 14:23:51;;;;;;;;;;;;;;;11.59;100.00;94945.78;10496080;28;3019;-73
2022/11/15 14:28:58;;;;;;;;;;;;;;;11.52;100.00;94940.03;10513914;28;2994;-73
2022/11/15 14:34:04;;;;;;;;;;;;;;;11.49;100.00;94944.09;10509791;28;2935;-71
2022/11/15 14:39:09;;;;;;;;;;;;;;;11.39;100.00;94947.00;10500284;28;3022;-72
2022/11/15 14:44:18;;;;;;;;;;;;;;;11.26;100.00;94953.97;10504069;28;2985;-72
2022/11/15 14:49:30;;;;;;;;;;;;;;;11.09;100.00;94943.78;10491626;28;3125;-74
2022/11/15 14:54:38;;;;;;;;;;;;;;;10.98;100.00;94942.34;10501007;28;3025;-74
2022/11/15 14:59:43;;;;;;;;;;;;;;;10.58;100.00;94938.47;10498750;28;3266;-73
2022/11/15 15:04:53;;;;;;;;;;;;;;;10.53;100.00;94938.53;10493439;28;3041;-75
2022/11/15 15:09:57;;;;;;;;;;;;;;;10.46;100.00;94941.59;10504779;28;2731;-74
2022/11/15 15:15:23;;;;;;;;;;;;;;;10.38;100.00;94934.22;10503707;28;2960;-73
2022/11/15 15:20:31;;;;;;;;;;;;;;;10.24;100.00;94933.34;10517724;28;3059;-73
2022/11/15 15:25:37;;;;;;;;;;;;;;;9.99;100.00;94934.50;10512886;28;3073;-72
2022/11/15 15:30:46;;;;;;;;;;;;;;;9.81;100.00;94935.28;10518960;28;3162;-72
2022/11/15 15:36:01;;;;;;;;;;;;;;;9.51;100.00;94937.25;10513901;28;3023;-73
2022/11/15 15:41:10;;;;;;;;;;;;;;;9.33;100.00;94946.03;10501134;28;2758;-73
2022/11/15 15:46:14;;;;;;;;;;;;;;;9.20;100.00;94947.53;10515739;28;2974;-74
2022/11/15 15:51:18;;;;;;;;;;;;;;;9.02;100.00;94951.72;10510464;28;3018;-73
2022/11/15 15:56:27;;;;;;;;;;;;;;;8.88;100.00;94950.78;10508599;28;3072;-73
2022/11/15 16:01:31;;;;;;;;;;;;;;;8.86;100.00;94947.59;10510207;28;3046;-72
2022/11/15 16:06:44;;;;;;;;;;;;;;;8.66;100.00;94948.59;10513845;28;2935;-73
2022/11/15 16:11:53;;;;;;;;;;;;;;;8.49;100.00;94935.59;10507739;28;3057;-76
2022/11/15 16:17:00;;;;;;;;;;;;;;;8.41;100.00;94928.19;10512561;28;3160;-77
2022/11/15 16:22:07;;;;;;;;;;;;;;;8.27;100.00;94909.25;10540963;27;2695;-73
2022/11/15 16:27:13;;;;;;;;;;;;;;;8.31;100.00;94904.13;10517155;28;2989;-74
2022/11/15 16:32:18;;;;;;;;;;;;;;;8.32;100.00;94905.72;10522670;28;3002;-73
2022/11/15 16:37:25;;;;;;;;;;;;;;;8.30;100.00;94903.31;10507476;28;3025;-72
2022/11/15 16:42:32;;;;;;;;;;;;;;;8.35;100.00;94897.13;10510017;28;3140;-74
2022/11/15 16:47:38;;;;;;;;;;;;;;;8.37;100.00;94900.34;10507675;28;3027;-72
2022/11/15 16:52:44;;;;;;;;;;;;;;;8.31;100.00;94896.06;10509548;28;3041;-79
2022/11/15 16:57:52;;;;;;;;;;;;;;;8.25;100.00;94897.19;10506524;28;3049;-77
2022/11/15 17:02:59;;;;;;;;;;;;;;;8.13;100.00;94884.16;10516178;28;3147;-75
2022/11/15 17:08:12;;;;;;;;;;;;;;;8.16;100.00;94872.13;10553900;27;3061;-77
2022/11/15 17:13:26;;;;;;;;;;;;;;;8.19;100.00;94880.38;10517409;28;3070;-77
2022/11/15 17:18:35;;;;;;;;;;;;;;;8.08;100.00;94874.31;10516284;28;2971;-77
2022/11/15 17:23:49;;;;;;;;;;;;;;;8.04;100.00;94873.28;10528400;28;2977;-77
2022/11/15 17:28:56;;;;;;;;;;;;;;;7.88;100.00;94873.66;10500102;28;3041;-77
2022/11/15 17:34:04;;;;;;;;;;;;;;;7.91;100.00;94875.78;10504787;28;3052;-73
2022/11/15 17:39:17;;;;;;;;;;;;;;;7.81;100.00;94868.59;10507453;28;3211;-73
2022/11/15 17:44:23;;;;;;;;;;;;;;;7.75;100.00;94875.88;10512247;28;3022;-71
2022/11/15 17:49:27;;;;;;;;;;;;;;;7.68;100.00;94863.88;10509112;28;3030;-73
2022/11/15 17:54:32;;;;;;;;;;;;;;;7.69;100.00;94865.47;10516654;28;2683;-73
2022/11/15 17:59:37;;;;;;;;;;;;;;;7.77;100.00;94863.03;10540292;27;3106;-75
2022/11/15 18:04:44;;;;;;;;;;;;;;;7.75;100.00;94848.31;10514136;28;2900;-73
2022/11/15 18:10:04;;;;;;;;;;;;;;;7.75;100.00;94848.31;10511302;28;3176;-72
2022/11/15 18:15:20;;;;;;;;;;;;;;;7.66;100.00;94833.94;10518474;28;3044;-74
2022/11/15 18:20:27;;;;;;;;;;;;;;;7.81;100.00;94831.16;10507215;28;2970;-71
2022/11/15 18:25:32;;;;;;;;;;;;;;;7.69;100.00;94828.03;10501651;28;3128;-72
2022/11/15 18:30:40;;;;;;;;;;;;;;;7.66;100.00;94828.59;10517110;28;2997;-73
2022/11/15 18:35:45;;;;;;;;;;;;;;;7.55;100.00;94828.66;10520175;28;2998;-72
2022/11/15 18:40:59;;;;;;;;;;;;;;;7.46;100.00;94824.97;10503883;28;3038;-73
2022/11/15 18:46:12;;;;;;;;;;;;;;;7.61;100.00;94816.03;10538796;27;3465;-72
2022/11/15 18:51:22;;;;;;;;;;;;;;;7.66;100.00;94809.88;10509643;28;3009;-72
2022/11/15 18:56:32;;;;;;;;;;;;;;;7.80;100.00;94800.13;10519731;28;2983;-71
2022/11/15 19:01:46;;;;;;;;;;;;;;;7.81;100.00;94796.38;10507744;28;3377;-76
2022/11/15 19:06:56;;;;;;;;;;;;;;;7.68;100.00;94800.47;10512289;28;3137;-76
2022/11/15 19:12:02;;;;;;;;;;;;;;;7.76;100.00;94791.06;10509659;28;2969;-74
2022/11/15 19:17:06;;;;;;;;;;;;;;;7.75;100.00;94782.22;10506998;28;3042;-77
2022/11/15 19:22:11;;;;;;;;;;;;;;;7.71;100.00;94769.72;10508892;28;2760;-78
2022/11/15 19:27:22;;;;;;;;;;;;;;;7.55;100.00;94772.50;10508921;28;3224;-77
2022/11/15 19:32:25;;;;;;;;;;;;;;;7.46;100.00;94768.81;10507786;28;3013;-72
2022/11/15 19:37:29;;;;;;;;;;;;;;;7.51;100.00;94763.44;10500921;28;3237;-72
2022/11/15 19:42:39;;;;;;;;;;;;;;;7.48;100.00;94768.53;10511586;28;3006;-71
2022/11/15 19:47:44;;;;;;;;;;;;;;;7.49;100.00;94764.78;10517908;28;2978;-72
2022/11/15 19:52:49;;;;;;;;;;;;;;;7.57;100.00;94759.66;10506008;28;2991;-74
2022/11/15 19:57:52;;;;;;;;;;;;;;;7.64;100.00;94758.53;10514953;28;3075;-72
2022/11/15 20:02:57;;;;;;;;;;;;;;;7.68;100.00;94751.53;10515313;28;3065;-71
2022/11/15 20:08:09;;;;;;;;;;;;;;;7.62;100.00;94755.31;10517307;28;3031;-74
2022/11/15 20:13:21;;;;;;;;;;;;;;;7.57;100.00;94746.28;10510476;28;3038;-71
2022/11/15 20:18:25;;;;;;;;;;;;;;;7.67;100.00;94733.91;10510709;28;3011;-71
2022/11/15 20:23:39;;;;;;;;;;;;;;;7.86;100.00;94729.44;10515962;28;2718;-71
2022/11/15 20:28:46;;;;;;;;;;;;;;;7.70;100.00;94727.97;10517817;28;3006;-70
2022/11/15 20:33:50;;;;;;;;;;;;;;;7.77;100.00;94712.41;10504689;28;3356;-70
2022/11/15 20:38:55;;;;;;;;;;;;;;;7.73;100.00;94711.38;10510713;28;3033;-73
2022/11/15 20:44:02;;;;;;;;;;;;;;;7.71;100.00;94705.50;10509272;28;2986;-71
2022/11/15 20:49:10;;;;;;;;;;;;;;;7.70;100.00;94701.22;10519604;28;3061;-73
2022/11/15 20:54:20;;;;;;;;;;;;;;;7.66;100.00;94700.22;10514464;28;2982;-72
2022/11/15 20:59:28;;;;;;;;;;;;;;;7.70;100.00;94691.34;10515691;28;2699;-73
2022/11/15 21:04:38;;;;;;;;;;;;;;;7.55;100.00;94691.47;10510769;28;3053;-70
2022/11/15 21:15:12;;;;;;;;;;;;;;;7.68;100.00;94660.59;10504501;28;2792;-70
2022/11/15 21:20:21;;;;;;;;;;;;;;;7.57;100.00;94660.69;10510274;28;2987;-71
2022/11/15 21:25:33;;;;;;;;;;;;;;;7.53;100.00;94656.97;10498258;28;3053;-70
2022/11/15 21:30:41;;;;;;;;;;;;;;;7.66;100.00;94633.34;10511684;28;3102;-72
2022/11/15 21:35:46;;;;;;;;;;;;;;;7.68;100.00;94634.63;10507495;28;3195;-73
2022/11/15 21:40:51;;;;;;;;;;;;;;;7.56;100.00;94621.66;10512766;28;3056;-71
2022/11/15 21:45:55;;;;;;;;;;;;;;;7.53;100.00;94616.88;10505286;28;2970;-71
2022/11/15 21:50:59;;;;;;;;;;;;;;;7.38;100.00;94603.66;10507978;28;2990;-71
2022/11/15 21:56:02;;;;;;;;;;;;;;;7.43;100.00;94587.53;10503356;28;3162;-70
2022/11/15 22:06:28;;;;;;;;;;;;;;;7.07;100.00;94586.28;10505828;28;2827;-71
2022/11/15 22:11:33;;;;;;;;;;;;;;;6.94;100.00;94598.41;10512700;28;3003;-71
2022/11/15 22:16:43;;;;;;;;;;;;;;;6.99;100.00;94571.63;10505235;28;3018;-71
2022/11/15 22:21:52;;;;;;;;;;;;;;;6.86;100.00;94572.28;10507939;28;3004;-72
2022/11/15 22:27:01;;;;;;;;;;;;;;;6.69;100.00;94567.34;10510629;28;3033;-70
2022/11/15 22:32:07;;;;;;;;;;;;;;;6.71;100.00;94554.50;10511169;28;3086;-69
2022/11/15 22:37:12;;;;;;;;;;;;;;;6.62;100.00;94566.88;10518787;28;3165;-71
2022/11/15 22:42:25;;;;;;;;;;;;;;;6.59;100.00;94557.53;10503680;28;3066;-72
2022/11/15 22:47:31;;;;;;;;;;;;;;;6.57;100.00;94570.38;10504222;28;2927;-73
2022/11/15 22:52:34;;;;;;;;;;;;;;;6.44;100.00;94577.13;10507870;28;3007;-74
2022/11/15 22:57:41;;;;;;;;;;;;;;;6.43;100.00;94574.75;10512892;28;3165;-71
2022/11/15 23:02:46;;;;;;;;;;;;;;;6.50;100.00;94565.34;10513564;28;3025;-72
2022/11/15 23:07:55;;;;;;;;;;;;;;;6.67;100.00;94545.44;10504876;28;2781;-72
2022/11/15 23:13:18;;;;;;;;;;;;;;;6.54;100.00;94557.56;10513704;28;3089;-70
2022/11/15 23:18:23;;;;;;;;;;;;;;;6.45;100.00;94545.88;10515752;28;2693;-71
2022/11/15 23:23:28;;;;;;;;;;;;;;;6.34;100.00;94547.81;10505757;28;2951;-69
2022/11/15 23:28:33;;;;;;;;;;;;;;;6.30;100.00;94535.28;10541302;28;3101;-71
2022/11/15 23:38:59;;;;;;;;;;;;;;;6.37;100.00;94517.91;10507357;28;3038;-69
2022/11/15 23:44:10;;;;;;;;;;;;;;;6.27;100.00;94511.84;10519031;28;2686;-69
2022/11/15 23:49:22;;;;;;;;;;;;;;;6.12;100.00;94494.06;10517987;28;3138;-68
2022/11/15 23:54:31;;;;;;;;;;;;;;;5.99;100.00;94473.34;10511579;28;3038;-69
2022/11/15 23:59:35;;;;;;;;;;;;;;;5.88;100.00;94470.69;10511300;28;3029;-72
